sensor_id;sensor_type;location;lat;lon;timestamp;pressure;altitude;pressure_sealevel;temperature;humidity
7824;BME280;3957;48.61947800;9.05303100;2023-01-30T00:00:36;96622.75;;;-4.46;100.00
7824;BME280;3957;48.61947800;9.05303100;2023-01-30T00:01:39;96629.09;;;-4.50;100.00
7824;BME280;3957;48.61947800;9.05303100;2023-01-30T00:02:39;96636.38;;;-4.55;100.00
7824;BME280;3957;48.61947800;9.05303100;2023-01-30T00:03:39;96637.31;;;-4.56;100.00
7824;BME280;3957;48.61947800;9.05303100;2023-01-30T00:04:40;96637.41;;;-4.57;100.00
7824;BME280;3957;48.61947800;9.05303100;2023-01-30T00:05:40;96638.06;;;-4.54;100.00
7824;BME280;3957;48.61947800;9.05303100;2023-01-30T00:06:40;96638.63;;;-4.49;100.00
7824;BME280;3957;48.61947800;9.05303100;2023-01-30T00:07:41;96631.91;;;-4.53;100.00
7824;BME280;3957;48.61947800;9.05303100;2023-01-30T00:08:41;96619.59;;;-4.51;100.00
7824;BME280;3957;48.61947800;9.05303100;2023-01-30T00:09:42;96619.78;;;-4.54;100.00
7824;BME280;3957;48.61947800;9.05303100;2023-01-30T00:10:43;96610.47;;;-4.58;100.00
7824;BME280;3957;48.61947800;9.05303100;2023-01-30T00:11:43;96610.78;;;-4.63;100.00
7824;BME280;3957;48.61947800;9.05303100;2023-01-30T00:12:44;96613.03;;;-4.71;100.00
7824;BME280;3957;48.61947800;9.05303100;2023-01-30T00:13:46;96605.63;;;-4.64;100.00
7824;BME280;3957;48.61947800;9.05303100;2023-01-30T00:14:46;96603.78;;;-4.62;100.00
7824;BME280;3957;48.61947800;9.05303100;2023-01-30T00:15:47;96607.88;;;-4.58;100.00
7824;BME280;3957;48.61947800;9.05303100;2023-01-30T00:16:47;96612.06;;;-4.55;100.00
7824;BME280;3957;48.61947800;9.05303100;2023-01-30T00:17:48;96610.47;;;-4.58;100.00
7824;BME280;3957;48.61947800;9.05303100;2023-01-30T00:18:48;96609.00;;;-4.62;100.00
7824;BME280;3957;48.61947800;9.05303100;2023-01-30T00:19:48;96600.34;;;-4.63;100.00
7824;BME280;3957;48.61947800;9.05303100;2023-01-30T00:20:54;96601.06;;;-4.61;100.00
7824;BME280;3957;48.61947800;9.05303100;2023-01-30T00:21:55;96600.97;;;-4.59;100.00
7824;BME280;3957;48.61947800;9.05303100;2023-01-30T00:22:55;96593.31;;;-4.62;100.00
7824;BME280;3957;48.61947800;9.05303100;2023-01-30T00:23:57;96590.91;;;-4.65;100.00
7824;BME280;3957;48.61947800;9.05303100;2023-01-30T00:24:59;96591.19;;;-4.70;100.00
7824;BME280;3957;48.61947800;9.05303100;2023-01-30T00:26:00;96588.78;;;-4.73;100.00
7824;BME280;3957;48.61947800;9.05303100;2023-01-30T00:27:01;96586.38;;;-4.76;100.00
7824;BME280;3957;48.61947800;9.05303100;2023-01-30T00:28:02;96581.69;;;-4.71;100.00
7824;BME280;3957;48.61947800;9.05303100;2023-01-30T00:29:03;96583.66;;;-4.74;100.00
7824;BME280;3957;48.61947800;9.05303100;2023-01-30T00:30:04;96574.13;;;-4.75;100.00
7824;BME280;3957;48.61947800;9.05303100;2023-01-30T00:31:07;96574.69;;;-4.70;100.00
7824;BME280;3957;48.61947800;9.05303100;2023-01-30T00:32:07;96575.25;;;-4.65;100.00
7824;BME280;3957;48.61947800;9.05303100;2023-01-30T00:33:09;96573.56;;;-4.66;100.00
7824;BME280;3957;48.61947800;9.05303100;2023-01-30T00:34:09;96570.41;;;-4.71;100.00
7824;BME280;3957;48.61947800;9.05303100;2023-01-30T00:35:09;96568.53;;;-4.69;100.00
7824;BME280;3957;48.61947800;9.05303100;2023-01-30T00:36:10;96573.47;;;-4.65;100.00
7824;BME280;3957;48.61947800;9.05303100;2023-01-30T00:37:11;96565.97;;;-4.56;100.00
7824;BME280;3957;48.61947800;9.05303100;2023-01-30T00:38:13;96568.03;;;-4.62;100.00
7824;BME280;3957;48.61947800;9.05303100;2023-01-30T00:39:15;96574.63;;;-4.56;100.00
7824;BME280;3957;48.61947800;9.05303100;2023-01-30T00:40:15;96573.34;;;-4.63;100.00
7824;BME280;3957;48.61947800;9.05303100;2023-01-30T00:41:15;96569.72;;;-4.61;100.00
7824;BME280;3957;48.61947800;9.05303100;2023-01-30T00:42:17;96574.94;;;-4.61;100.00
7824;BME280;3957;48.61947800;9.05303100;2023-01-30T00:43:37;96564.97;;;-4.68;100.00
7824;BME280;3957;48.61947800;9.05303100;2023-01-30T00:44:55;96564.59;;;-4.62;100.00
7824;BME280;3957;48.61947800;9.05303100;2023-01-30T00:46:29;96569.00;;;-4.63;100.00
7824;BME280;3957;48.61947800;9.05303100;2023-01-30T00:47:48;96566.44;;;-4.50;100.00
7824;BME280;3957;48.61947800;9.05303100;2023-01-30T00:48:49;96557.00;;;-4.52;100.00
7824;BME280;3957;48.61947800;9.05303100;2023-01-30T00:49:49;96558.03;;;-4.55;100.00
7824;BME280;3957;48.61947800;9.05303100;2023-01-30T00:50:50;96560.19;;;-4.62;100.00
7824;BME280;3957;48.61947800;9.05303100;2023-01-30T00:51:50;96556.97;;;-4.65;100.00
7824;BME280;3957;48.61947800;9.05303100;2023-01-30T00:52:50;96559.69;;;-4.67;100.00
7824;BME280;3957;48.61947800;9.05303100;2023-01-30T00:53:51;96562.38;;;-4.68;100.00
7824;BME280;3957;48.61947800;9.05303100;2023-01-30T00:54:51;96559.22;;;-4.73;100.00
7824;BME280;3957;48.61947800;9.05303100;2023-01-30T00:55:52;96559.22;;;-4.73;100.00
7824;BME280;3957;48.61947800;9.05303100;2023-01-30T00:56:53;96563.22;;;-4.68;100.00
7824;BME280;3957;48.61947800;9.05303100;2023-01-30T00:57:54;96560.88;;;-4.72;100.00
7824;BME280;3957;48.61947800;9.05303100;2023-01-30T00:58:54;96568.72;;;-4.72;100.00
7824;BME280;3957;48.61947800;9.05303100;2023-01-30T00:59:54;96573.66;;;-4.68;100.00
7824;BME280;3957;48.61947800;9.05303100;2023-01-30T01:00:55;96569.56;;;-4.72;100.00
7824;BME280;3957;48.61947800;9.05303100;2023-01-30T01:01:56;96569.66;;;-4.73;100.00
7824;BME280;3957;48.61947800;9.05303100;2023-01-30T01:02:57;96579.66;;;-4.80;100.00
7824;BME280;3957;48.61947800;9.05303100;2023-01-30T01:03:58;96578.63;;;-4.78;100.00
7824;BME280;3957;48.61947800;9.05303100;2023-01-30T01:04:58;96569.47;;;-4.70;100.00
7824;BME280;3957;48.61947800;9.05303100;2023-01-30T01:06:00;96578.13;;;-4.70;100.00
7824;BME280;3957;48.61947800;9.05303100;2023-01-30T01:07:01;96573.88;;;-4.71;100.00
7824;BME280;3957;48.61947800;9.05303100;2023-01-30T01:08:01;96574.25;;;-4.77;100.00
7824;BME280;3957;48.61947800;9.05303100;2023-01-30T01:09:02;96581.50;;;-4.82;100.00
7824;BME280;3957;48.61947800;9.05303100;2023-01-30T01:10:03;96579.94;;;-4.85;100.00
7824;BME280;3957;48.61947800;9.05303100;2023-01-30T01:11:04;96586.00;;;-4.84;100.00
7824;BME280;3957;48.61947800;9.05303100;2023-01-30T01:12:05;96589.69;;;-4.74;100.00
7824;BME280;3957;48.61947800;9.05303100;2023-01-30T01:13:06;96593.22;;;-4.61;100.00
7824;BME280;3957;48.61947800;9.05303100;2023-01-30T01:14:06;96589.13;;;-4.65;100.00
7824;BME280;3957;48.61947800;9.05303100;2023-01-30T01:15:07;96594.56;;;-4.68;100.00
7824;BME280;3957;48.61947800;9.05303100;2023-01-30T01:16:07;96597.78;;;-4.64;100.00
7824;BME280;3957;48.61947800;9.05303100;2023-01-30T01:17:08;96598.84;;;-4.67;100.00
7824;BME280;3957;48.61947800;9.05303100;2023-01-30T01:18:08;96595.53;;;-4.56;100.00
7824;BME280;3957;48.61947800;9.05303100;2023-01-30T01:19:09;96605.44;;;-4.61;100.00
7824;BME280;3957;48.61947800;9.05303100;2023-01-30T01:20:10;96604.25;;;-4.70;100.00
7824;BME280;3957;48.61947800;9.05303100;2023-01-30T01:21:11;96601.84;;;-4.73;100.00
7824;BME280;3957;48.61947800;9.05303100;2023-01-30T01:22:12;96608.19;;;-4.77;100.00
7824;BME280;3957;48.61947800;9.05303100;2023-01-30T01:23:12;96613.59;;;-4.80;100.00
7824;BME280;3957;48.61947800;9.05303100;2023-01-30T01:24:14;96608.94;;;-4.75;100.00
7824;BME280;3957;48.61947800;9.05303100;2023-01-30T01:25:15;96618.31;;;-4.72;100.00
7824;BME280;3957;48.61947800;9.05303100;2023-01-30T01:26:16;96615.66;;;-4.71;100.00
7824;BME280;3957;48.61947800;9.05303100;2023-01-30T01:27:16;96622.78;;;-4.60;100.00
7824;BME280;3957;48.61947800;9.05303100;2023-01-30T01:28:18;96629.69;;;-4.59;100.00
7824;BME280;3957;48.61947800;9.05303100;2023-01-30T01:29:21;96625.22;;;-4.57;100.00
7824;BME280;3957;48.61947800;9.05303100;2023-01-30T01:30:21;96621.13;;;-4.61;100.00
7824;BME280;3957;48.61947800;9.05303100;2023-01-30T01:31:22;96621.53;;;-4.54;100.00
7824;BME280;3957;48.61947800;9.05303100;2023-01-30T01:32:23;96623.06;;;-4.65;100.00
7824;BME280;3957;48.61947800;9.05303100;2023-01-30T01:33:27;96622.81;;;-4.74;100.00
7824;BME280;3957;48.61947800;9.05303100;2023-01-30T01:34:27;96624.75;;;-4.78;100.00
7824;BME280;3957;48.61947800;9.05303100;2023-01-30T01:35:29;96624.97;;;-4.81;100.00
7824;BME280;3957;48.61947800;9.05303100;2023-01-30T01:36:29;96629.81;;;-4.75;100.00
7824;BME280;3957;48.61947800;9.05303100;2023-01-30T01:37:30;96630.53;;;-4.73;100.00
7824;BME280;3957;48.61947800;9.05303100;2023-01-30T01:38:31;96634.28;;;-4.63;100.00
7824;BME280;3957;48.61947800;9.05303100;2023-01-30T01:39:32;96638.09;;;-4.68;100.00
7824;BME280;3957;48.61947800;9.05303100;2023-01-30T01:40:51;96637.16;;;-4.67;100.00
7824;BME280;3957;48.61947800;9.05303100;2023-01-30T01:42:06;96639.41;;;-4.61;100.00
7824;BME280;3957;48.61947800;9.05303100;2023-01-30T01:43:20;96630.72;;;-4.62;100.00
7824;BME280;3957;48.61947800;9.05303100;2023-01-30T01:44:23;96622.59;;;-4.57;100.00
7824;BME280;3957;48.61947800;9.05303100;2023-01-30T01:45:24;96631.72;;;-4.64;100.00
7824;BME280;3957;48.61947800;9.05303100;2023-01-30T01:46:28;96632.03;;;-4.69;100.00
7824;BME280;3957;48.61947800;9.05303100;2023-01-30T01:47:31;96627.13;;;-4.73;100.00
7824;BME280;3957;48.61947800;9.05303100;2023-01-30T01:48:37;96630.34;;;-4.70;100.00
7824;BME280;3957;48.61947800;9.05303100;2023-01-30T01:49:39;96623.47;;;-4.71;100.00
7824;BME280;3957;48.61947800;9.05303100;2023-01-30T01:50:48;96631.66;;;-4.77;100.00
7824;BME280;3957;48.61947800;9.05303100;2023-01-30T01:51:54;96634.47;;;-4.80;100.00
7824;BME280;3957;48.61947800;9.05303100;2023-01-30T01:52:59;96632.91;;;-4.83;100.00
7824;BME280;3957;48.61947800;9.05303100;2023-01-30T01:54:05;96628.13;;;-4.76;100.00
7824;BME280;3957;48.61947800;9.05303100;2023-01-30T01:55:07;96636.91;;;-4.77;100.00
7824;BME280;3957;48.61947800;9.05303100;2023-01-30T01:56:08;96627.56;;;-4.81;100.00
7824;BME280;3957;48.61947800;9.05303100;2023-01-30T01:57:15;96631.78;;;-4.79;100.00
7824;BME280;3957;48.61947800;9.05303100;2023-01-30T01:58:30;96623.28;;;-4.82;100.00
7824;BME280;3957;48.61947800;9.05303100;2023-01-30T01:59:39;96622.00;;;-4.89;100.00
7824;BME280;3957;48.61947800;9.05303100;2023-01-30T02:00:43;96625.81;;;-4.95;100.00
7824;BME280;3957;48.61947800;9.05303100;2023-01-30T02:01:44;96613.91;;;-4.99;100.00
7824;BME280;3957;48.61947800;9.05303100;2023-01-30T02:02:57;96608.97;;;-5.04;100.00
7824;BME280;3957;48.61947800;9.05303100;2023-01-30T02:04:02;96618.66;;;-5.06;100.00
7824;BME280;3957;48.61947800;9.05303100;2023-01-30T02:05:03;96632.47;;;-5.04;100.00
7824;BME280;3957;48.61947800;9.05303100;2023-01-30T02:06:06;96624.63;;;-5.04;100.00
7824;BME280;3957;48.61947800;9.05303100;2023-01-30T02:07:07;96635.06;;;-5.04;100.00
7824;BME280;3957;48.61947800;9.05303100;2023-01-30T02:08:11;96638.69;;;-5.06;100.00
7824;BME280;3957;48.61947800;9.05303100;2023-01-30T02:09:14;96640.38;;;-5.05;100.00
7824;BME280;3957;48.61947800;9.05303100;2023-01-30T02:10:18;96645.66;;;-5.07;100.00
7824;BME280;3957;48.61947800;9.05303100;2023-01-30T02:11:29;96641.56;;;-5.11;100.00
7824;BME280;3957;48.61947800;9.05303100;2023-01-30T02:12:31;96641.41;;;-5.08;100.00
7824;BME280;3957;48.61947800;9.05303100;2023-01-30T02:13:32;96646.88;;;-5.13;100.00
7824;BME280;3957;48.61947800;9.05303100;2023-01-30T02:14:33;96640.84;;;-5.13;100.00
7824;BME280;3957;48.61947800;9.05303100;2023-01-30T02:15:34;96639.16;;;-5.14;100.00
7824;BME280;3957;48.61947800;9.05303100;2023-01-30T02:16:35;96638.22;;;-5.13;100.00
7824;BME280;3957;48.61947800;9.05303100;2023-01-30T02:17:37;96634.94;;;-5.17;100.00
7824;BME280;3957;48.61947800;9.05303100;2023-01-30T02:18:39;96624.72;;;-5.20;100.00
7824;BME280;3957;48.61947800;9.05303100;2023-01-30T02:19:50;96615.28;;;-5.22;100.00
7824;BME280;3957;48.61947800;9.05303100;2023-01-30T02:22:15;96631.53;;;-5.32;100.00
7824;BME280;3957;48.61947800;9.05303100;2023-01-30T02:30:41;96648.81;;;-5.45;100.00
7824;BME280;3957;48.61947800;9.05303100;2023-01-30T02:39:18;96639.13;;;-5.43;100.00
7824;BME280;3957;48.61947800;9.05303100;2023-01-30T02:40:39;96612.56;;;-5.50;100.00
7824;BME280;3957;48.61947800;9.05303100;2023-01-30T02:44:06;96606.81;;;-5.55;100.00
7824;BME280;3957;48.61947800;9.05303100;2023-01-30T02:45:17;96616.38;;;-5.55;100.00
7824;BME280;3957;48.61947800;9.05303100;2023-01-30T02:46:38;96618.06;;;-5.54;100.00
7824;BME280;3957;48.61947800;9.05303100;2023-01-30T02:47:49;96633.63;;;-5.53;100.00
7824;BME280;3957;48.61947800;9.05303100;2023-01-30T02:48:56;96642.22;;;-5.51;100.00
7824;BME280;3957;48.61947800;9.05303100;2023-01-30T02:50:09;96644.34;;;-5.43;100.00
7824;BME280;3957;48.61947800;9.05303100;2023-01-30T02:51:51;96641.97;;;-5.32;100.00
7824;BME280;3957;48.61947800;9.05303100;2023-01-30T02:52:46;96641.38;;;-5.22;100.00
7824;BME280;3957;48.61947800;9.05303100;2023-01-30T02:53:49;96623.22;;;-5.24;100.00
7824;BME280;3957;48.61947800;9.05303100;2023-01-30T02:54:50;96610.06;;;-5.22;100.00
7824;BME280;3957;48.61947800;9.05303100;2023-01-30T02:55:51;96602.44;;;-5.25;100.00
7824;BME280;3957;48.61947800;9.05303100;2023-01-30T02:56:55;96599.16;;;-5.29;100.00
7824;BME280;3957;48.61947800;9.05303100;2023-01-30T02:57:56;96593.41;;;-5.34;100.00
7824;BME280;3957;48.61947800;9.05303100;2023-01-30T02:59:01;96590.97;;;-5.37;100.00
7824;BME280;3957;48.61947800;9.05303100;2023-01-30T03:00:06;96589.56;;;-5.43;100.00
7824;BME280;3957;48.61947800;9.05303100;2023-01-30T03:07:26;96624.69;;;-5.49;100.00
7824;BME280;3957;48.61947800;9.05303100;2023-01-30T03:08:57;96629.06;;;-5.49;100.00
7824;BME280;3957;48.61947800;9.05303100;2023-01-30T03:11:31;96623.38;;;-5.56;100.00
7824;BME280;3957;48.61947800;9.05303100;2023-01-30T03:12:49;96618.44;;;-5.60;100.00
7824;BME280;3957;48.61947800;9.05303100;2023-01-30T03:14:04;96608.13;;;-5.62;100.00
7824;BME280;3957;48.61947800;9.05303100;2023-01-30T03:15:31;96610.06;;;-5.66;100.00
7824;BME280;3957;48.61947800;9.05303100;2023-01-30T03:16:40;96613.41;;;-5.64;100.00
7824;BME280;3957;48.61947800;9.05303100;2023-01-30T03:17:43;96603.16;;;-5.67;100.00
7824;BME280;3957;48.61947800;9.05303100;2023-01-30T03:18:48;96602.53;;;-5.70;100.00
7824;BME280;3957;48.61947800;9.05303100;2023-01-30T03:19:52;96604.84;;;-5.66;100.00
7824;BME280;3957;48.61947800;9.05303100;2023-01-30T03:20:53;96596.44;;;-5.71;100.00
7824;BME280;3957;48.61947800;9.05303100;2023-01-30T03:21:53;96598.13;;;-5.70;100.00
7824;BME280;3957;48.61947800;9.05303100;2023-01-30T03:22:54;96585.19;;;-5.71;100.00
7824;BME280;3957;48.61947800;9.05303100;2023-01-30T03:23:54;96586.88;;;-5.70;100.00
7824;BME280;3957;48.61947800;9.05303100;2023-01-30T03:24:55;96582.78;;;-5.74;100.00
7824;BME280;3957;48.61947800;9.05303100;2023-01-30T03:25:56;96569.75;;;-5.74;100.00
7824;BME280;3957;48.61947800;9.05303100;2023-01-30T03:27:02;96571.31;;;-5.72;100.00
7824;BME280;3957;48.61947800;9.05303100;2023-01-30T03:28:05;96570.28;;;-5.69;100.00
7824;BME280;3957;48.61947800;9.05303100;2023-01-30T03:29:07;96570.28;;;-5.69;100.00
7824;BME280;3957;48.61947800;9.05303100;2023-01-30T03:30:08;96569.38;;;-5.68;100.00
7824;BME280;3957;48.61947800;9.05303100;2023-01-30T03:31:09;96554.94;;;-5.74;100.00
7824;BME280;3957;48.61947800;9.05303100;2023-01-30T03:32:09;96560.53;;;-5.66;100.00
7824;BME280;3957;48.61947800;9.05303100;2023-01-30T03:33:10;96550.81;;;-5.64;100.00
7824;BME280;3957;48.61947800;9.05303100;2023-01-30T03:34:12;96538.94;;;-5.53;100.00
7824;BME280;3957;48.61947800;9.05303100;2023-01-30T03:35:13;96524.97;;;-5.52;100.00
7824;BME280;3957;48.61947800;9.05303100;2023-01-30T03:36:17;96505.59;;;-5.48;100.00
7824;BME280;3957;48.61947800;9.05303100;2023-01-30T03:37:17;96482.66;;;-5.43;100.00
7824;BME280;3957;48.61947800;9.05303100;2023-01-30T03:38:18;96462.19;;;-5.49;100.00
7824;BME280;3957;48.61947800;9.05303100;2023-01-30T03:39:20;96453.50;;;-5.35;100.00
7824;BME280;3957;48.61947800;9.05303100;2023-01-30T03:40:22;96445.38;;;-5.31;100.00
7824;BME280;3957;48.61947800;9.05303100;2023-01-30T03:41:23;96448.44;;;-5.24;100.00
7824;BME280;3957;48.61947800;9.05303100;2023-01-30T03:42:23;96448.34;;;-5.22;100.00
7824;BME280;3957;48.61947800;9.05303100;2023-01-30T03:43:24;96445.69;;;-5.08;100.00
7824;BME280;3957;48.61947800;9.05303100;2023-01-30T03:44:24;96447.28;;;-5.05;100.00
7824;BME280;3957;48.61947800;9.05303100;2023-01-30T03:45:25;96449.97;;;-5.07;100.00
7824;BME280;3957;48.61947800;9.05303100;2023-01-30T03:46:26;96446.31;;;-5.04;100.00
7824;BME280;3957;48.61947800;9.05303100;2023-01-30T03:47:27;96457.41;;;-5.01;100.00
7824;BME280;3957;48.61947800;9.05303100;2023-01-30T03:48:28;96474.84;;;-5.01;100.00
7824;BME280;3957;48.61947800;9.05303100;2023-01-30T03:49:29;96486.22;;;-5.02;100.00
7824;BME280;3957;48.61947800;9.05303100;2023-01-30T03:50:31;96477.53;;;-5.03;100.00
7824;BME280;3957;48.61947800;9.05303100;2023-01-30T03:51:31;96483.31;;;-4.98;100.00
7824;BME280;3957;48.61947800;9.05303100;2023-01-30T03:52:34;96497.00;;;-4.94;100.00
7824;BME280;3957;48.61947800;9.05303100;2023-01-30T03:53:34;96508.81;;;-4.88;100.00
7824;BME280;3957;48.61947800;9.05303100;2023-01-30T03:54:35;96518.13;;;-4.84;100.00
7824;BME280;3957;48.61947800;9.05303100;2023-01-30T03:55:37;96527.81;;;-4.86;100.00
7824;BME280;3957;48.61947800;9.05303100;2023-01-30T03:56:38;96521.13;;;-4.90;100.00
7824;BME280;3957;48.61947800;9.05303100;2023-01-30T03:57:39;96514.88;;;-4.88;100.00
7824;BME280;3957;48.61947800;9.05303100;2023-01-30T03:58:39;96516.75;;;-4.90;100.00
7824;BME280;3957;48.61947800;9.05303100;2023-01-30T03:59:50;96516.88;;;-4.91;100.00
7824;BME280;3957;48.61947800;9.05303100;2023-01-30T04:00:50;96515.38;;;-4.96;100.00
7824;BME280;3957;48.61947800;9.05303100;2023-01-30T04:01:50;96525.06;;;-4.98;100.00
7824;BME280;3957;48.61947800;9.05303100;2023-01-30T04:02:51;96534.88;;;-5.01;100.00
7824;BME280;3957;48.61947800;9.05303100;2023-01-30T04:03:53;96542.31;;;-4.95;100.00
7824;BME280;3957;48.61947800;9.05303100;2023-01-30T04:04:54;96538.00;;;-4.96;100.00
7824;BME280;3957;48.61947800;9.05303100;2023-01-30T04:05:54;96539.94;;;-4.85;100.00
7824;BME280;3957;48.61947800;9.05303100;2023-01-30T04:06:55;96536.69;;;-4.89;100.00
7824;BME280;3957;48.61947800;9.05303100;2023-01-30T04:07:57;96532.41;;;-4.90;100.00
7824;BME280;3957;48.61947800;9.05303100;2023-01-30T04:08:58;96520.53;;;-4.81;100.00
7824;BME280;3957;48.61947800;9.05303100;2023-01-30T04:10:14;96523.28;;;-4.70;100.00
7824;BME280;3957;48.61947800;9.05303100;2023-01-30T04:11:15;96526.88;;;-4.71;100.00
7824;BME280;3957;48.61947800;9.05303100;2023-01-30T04:12:16;96525.09;;;-4.70;100.00
7824;BME280;3957;48.61947800;9.05303100;2023-01-30T04:13:25;96522.38;;;-4.69;100.00
7824;BME280;3957;48.61947800;9.05303100;2023-01-30T04:14:25;96525.75;;;-4.67;100.00
7824;BME280;3957;48.61947800;9.05303100;2023-01-30T04:16:17;96520.31;;;-4.64;100.00
7824;BME280;3957;48.61947800;9.05303100;2023-01-30T04:17:50;96514.16;;;-4.63;100.00
7824;BME280;3957;48.61947800;9.05303100;2023-01-30T04:19:02;96509.44;;;-4.57;100.00
7824;BME280;3957;48.61947800;9.05303100;2023-01-30T04:20:06;96514.78;;;-4.59;100.00
7824;BME280;3957;48.61947800;9.05303100;2023-01-30T04:21:09;96518.75;;;-4.53;100.00
7824;BME280;3957;48.61947800;9.05303100;2023-01-30T04:22:12;96514.97;;;-4.35;100.00
7824;BME280;3957;48.61947800;9.05303100;2023-01-30T04:23:12;96524.97;;;-4.41;100.00
7824;BME280;3957;48.61947800;9.05303100;2023-01-30T04:24:13;96518.06;;;-4.42;100.00
7824;BME280;3957;48.61947800;9.05303100;2023-01-30T04:25:14;96525.78;;;-4.41;100.00
7824;BME280;3957;48.61947800;9.05303100;2023-01-30T04:26:15;96511.09;;;-4.29;100.00
7824;BME280;3957;48.61947800;9.05303100;2023-01-30T04:27:15;96516.81;;;-4.37;100.00
7824;BME280;3957;48.61947800;9.05303100;2023-01-30T04:28:33;96518.72;;;-4.39;100.00
7824;BME280;3957;48.61947800;9.05303100;2023-01-30T04:29:34;96513.19;;;-4.34;100.00
7824;BME280;3957;48.61947800;9.05303100;2023-01-30T04:30:37;96515.13;;;-4.38;100.00
7824;BME280;3957;48.61947800;9.05303100;2023-01-30T04:32:00;96515.78;;;-4.34;100.00
7824;BME280;3957;48.61947800;9.05303100;2023-01-30T04:33:05;96514.00;;;-4.34;100.00
7824;BME280;3957;48.61947800;9.05303100;2023-01-30T04:34:06;96521.00;;;-4.34;100.00
7824;BME280;3957;48.61947800;9.05303100;2023-01-30T04:35:06;96513.19;;;-4.34;100.00
7824;BME280;3957;48.61947800;9.05303100;2023-01-30T04:36:08;96505.78;;;-4.28;100.00
7824;BME280;3957;48.61947800;9.05303100;2023-01-30T04:37:09;96505.44;;;-4.36;100.00
7824;BME280;3957;48.61947800;9.05303100;2023-01-30T04:38:10;96505.44;;;-4.36;100.00
7824;BME280;3957;48.61947800;9.05303100;2023-01-30T04:39:10;96504.19;;;-4.30;100.00
7824;BME280;3957;48.61947800;9.05303100;2023-01-30T04:40:12;96506.81;;;-4.30;100.00
7824;BME280;3957;48.61947800;9.05303100;2023-01-30T04:41:14;96507.22;;;-4.36;100.00
7824;BME280;3957;48.61947800;9.05303100;2023-01-30T04:42:16;96506.16;;;-4.34;100.00
7824;BME280;3957;48.61947800;9.05303100;2023-01-30T04:43:30;96509.00;;;-4.24;100.00
7824;BME280;3957;48.61947800;9.05303100;2023-01-30T04:44:42;96507.97;;;-4.21;100.00
7824;BME280;3957;48.61947800;9.05303100;2023-01-30T04:45:51;96507.84;;;-4.20;100.00
7824;BME280;3957;48.61947800;9.05303100;2023-01-30T04:46:52;96507.03;;;-4.20;100.00
7824;BME280;3957;48.61947800;9.05303100;2023-01-30T04:47:53;96513.19;;;-4.21;100.00
7824;BME280;3957;48.61947800;9.05303100;2023-01-30T04:48:54;96509.84;;;-4.23;100.00
7824;BME280;3957;48.61947800;9.05303100;2023-01-30T04:49:54;96508.94;;;-4.22;100.00
7824;BME280;3957;48.61947800;9.05303100;2023-01-30T04:50:55;96516.56;;;-4.19;100.00
7824;BME280;3957;48.61947800;9.05303100;2023-01-30T04:51:56;96510.56;;;-4.21;100.00
7824;BME280;3957;48.61947800;9.05303100;2023-01-30T04:52:56;96512.47;;;-4.11;100.00
7824;BME280;3957;48.61947800;9.05303100;2023-01-30T04:53:57;96519.50;;;-4.11;100.00
7824;BME280;3957;48.61947800;9.05303100;2023-01-30T04:54:57;96519.72;;;-4.01;100.00
7824;BME280;3957;48.61947800;9.05303100;2023-01-30T04:55:58;96521.72;;;-3.92;100.00
7824;BME280;3957;48.61947800;9.05303100;2023-01-30T04:56:58;96514.81;;;-3.93;100.00
7824;BME280;3957;48.61947800;9.05303100;2023-01-30T04:57:59;96512.50;;;-3.98;100.00
7824;BME280;3957;48.61947800;9.05303100;2023-01-30T04:58:59;96507.69;;;-3.91;100.00
7824;BME280;3957;48.61947800;9.05303100;2023-01-30T05:00:04;96519.94;;;-3.91;100.00
7824;BME280;3957;48.61947800;9.05303100;2023-01-30T05:01:29;96526.19;;;-3.81;100.00
7824;BME280;3957;48.61947800;9.05303100;2023-01-30T05:02:30;96518.28;;;-3.80;100.00
7824;BME280;3957;48.61947800;9.05303100;2023-01-30T05:03:30;96528.63;;;-3.78;100.00
7824;BME280;3957;48.61947800;9.05303100;2023-01-30T05:04:31;96521.59;;;-3.78;100.00
7824;BME280;3957;48.61947800;9.05303100;2023-01-30T05:05:32;96522.88;;;-3.83;100.00
7824;BME280;3957;48.61947800;9.05303100;2023-01-30T05:06:34;96531.53;;;-3.83;100.00
7824;BME280;3957;48.61947800;9.05303100;2023-01-30T05:07:34;96524.66;;;-3.84;100.00
7824;BME280;3957;48.61947800;9.05303100;2023-01-30T05:08:35;96520.56;;;-3.88;100.00
7824;BME280;3957;48.61947800;9.05303100;2023-01-30T05:09:35;96521.94;;;-3.82;100.00
7824;BME280;3957;48.61947800;9.05303100;2023-01-30T05:10:35;96522.44;;;-3.77;100.00
7824;BME280;3957;48.61947800;9.05303100;2023-01-30T05:11:36;96520.03;;;-3.80;100.00
7824;BME280;3957;48.61947800;9.05303100;2023-01-30T05:12:37;96515.66;;;-3.67;100.00
7824;BME280;3957;48.61947800;9.05303100;2023-01-30T05:13:37;96497.34;;;-3.67;100.00
7824;BME280;3957;48.61947800;9.05303100;2023-01-30T05:14:38;96497.56;;;-3.70;100.00
7824;BME280;3957;48.61947800;9.05303100;2023-01-30T05:15:40;96484.78;;;-3.62;100.00
7824;BME280;3957;48.61947800;9.05303100;2023-01-30T05:16:40;96499.34;;;-3.57;100.00
7824;BME280;3957;48.61947800;9.05303100;2023-01-30T05:17:41;96500.06;;;-3.55;100.00
7824;BME280;3957;48.61947800;9.05303100;2023-01-30T05:18:41;96494.94;;;-3.57;100.00
7824;BME280;3957;48.61947800;9.05303100;2023-01-30T05:19:42;96491.91;;;-3.64;100.00
7824;BME280;3957;48.61947800;9.05303100;2023-01-30T05:20:42;96492.84;;;-3.65;100.00
7824;BME280;3957;48.61947800;9.05303100;2023-01-30T05:21:43;96482.78;;;-3.58;100.00
7824;BME280;3957;48.61947800;9.05303100;2023-01-30T05:22:43;96477.66;;;-3.60;100.00
7824;BME280;3957;48.61947800;9.05303100;2023-01-30T05:23:44;96479.16;;;-3.68;100.00
7824;BME280;3957;48.61947800;9.05303100;2023-01-30T05:24:45;96480.59;;;-3.64;100.00
7824;BME280;3957;48.61947800;9.05303100;2023-01-30T05:25:45;96484.16;;;-3.65;100.00
7824;BME280;3957;48.61947800;9.05303100;2023-01-30T05:26:45;96474.44;;;-3.63;100.00